Shangchuan Dao, China
Current Conditions -  °F | °C
As of 5:00 AM on Wednesday 26 Nov 2014 (Local Time) from VMMC Reporting Station
Few Clouds Few Clouds  
Wind Chill: 72°   Ceiling: Unl
Heat Index: 72°   Visibility: 4mi
Dew Point: 64°   Wind: 9mph
Humidity: 78%   Direction: 340°NNW
Pressure: 29.88"   Gusts: NA
Location:  21.73°N, 112.77°E
Report Text: VMMC 252100Z 34008KT 7000 FEW025 22/18 Q1012 NOSIG
Loading
Personal Weather Stations






























Interactive Weather Map New forecast layout! Learn more

10-Day Weather Forecast

Advertisements
Track Severe Weather on mobile